Time;durP1;ratioP1;P1;durP2;ratioP2;P2;SDS_P1;SDS_P2;PMS_P1;PMS_P2;Temp;Humidity;BMP_temperature;BMP_pressure;BME280_temperature;BME280_humidity;BME280_pressure;Samples;Min_cycle;Max_cycle;Signal;HPM_P1;HPM_P2
2022/04/30 00:01:26;;;;;;;13.05;8.07;;;;;;;14.08;49.33;94256.97;4988893;28;20185;-70
2022/04/30 00:03:52;;;;;;;14.68;9.23;;;;;;;14.05;49.28;94251.50;4986464;28;20382;-70
2022/04/30 00:06:18;;;;;;;12.60;8.40;;;;;;;14.06;49.43;94251.19;4990867;28;20415;-71
2022/04/30 00:08:43;;;;;;;13.73;8.57;;;;;;;13.97;49.55;94244.31;4988296;28;20324;-70
2022/04/30 00:11:09;;;;;;;16.77;8.80;;;;;;;13.95;49.31;94246.53;4990526;28;20025;-69
2022/04/30 00:13:37;;;;;;;12.25;7.65;;;;;;;13.93;49.42;94248.75;4994645;28;20040;-69
2022/04/30 00:16:02;;;;;;;14.50;9.32;;;;;;;13.97;49.24;94242.44;4987580;28;20048;-70
2022/04/30 00:18:28;;;;;;;12.68;8.75;;;;;;;13.96;49.31;94240.06;4997539;28;20042;-70
2022/04/30 00:20:53;;;;;;;12.75;7.75;;;;;;;13.96;49.36;94248.09;4987963;28;20056;-70
2022/04/30 00:23:22;;;;;;;10.48;6.85;;;;;;;13.90;49.11;94244.81;5001855;28;20542;-70
2022/04/30 00:25:49;;;;;;;14.40;7.65;;;;;;;13.80;49.11;94239.06;4970836;28;20045;-70
2022/04/30 00:28:16;;;;;;;10.18;6.75;;;;;;;13.86;49.38;94253.81;4987768;28;20038;-70
2022/04/30 00:30:43;;;;;;;11.52;7.05;;;;;;;13.82;49.46;94252.91;4997444;28;20104;-70
2022/04/30 00:33:10;;;;;;;11.20;7.30;;;;;;;13.64;49.33;94223.56;4989768;28;20348;-70
2022/04/30 00:35:36;;;;;;;15.45;8.63;;;;;;;13.82;49.35;94244.88;4996022;28;20026;-70
2022/04/30 00:38:02;;;;;;;11.15;7.05;;;;;;;13.80;49.51;94244.41;4991540;28;20492;-71
2022/04/30 00:40:27;;;;;;;12.82;6.95;;;;;;;13.85;49.10;94252.22;4979492;28;20038;-69
2022/04/30 00:42:53;;;;;;;11.80;7.20;;;;;;;13.75;49.07;94232.00;4972858;28;20460;-70
2022/04/30 00:45:19;;;;;;;11.63;6.95;;;;;;;13.66;49.17;94221.34;4984049;28;20049;-70
2022/04/30 00:47:44;;;;;;;13.15;7.38;;;;;;;13.80;49.38;94244.41;4998343;28;20049;-70
2022/04/30 00:50:14;;;;;;;11.75;7.53;;;;;;;13.82;49.45;94242.97;4994151;28;20786;-70
2022/04/30 00:52:42;;;;;;;9.93;6.68;;;;;;;13.73;49.42;94223.53;4995723;28;20486;-68
2022/04/30 00:55:08;;;;;;;12.05;7.55;;;;;;;13.70;49.42;94238.31;4994968;28;20056;-70
2022/04/30 00:57:36;;;;;;;10.07;6.85;;;;;;;13.75;49.63;94238.13;4995398;28;20042;-70
2022/04/30 01:00:04;;;;;;;12.77;7.20;;;;;;;13.64;49.60;94236.16;4997811;28;20641;-69
2022/04/30 01:02:32;;;;;;;10.32;5.95;;;;;;;13.69;49.73;94239.41;4995694;28;21339;-70
2022/04/30 01:04:59;;;;;;;9.88;7.03;;;;;;;13.70;49.33;94235.63;4980269;28;20023;-70
2022/04/30 01:07:26;;;;;;;9.20;6.25;;;;;;;13.68;49.46;94237.88;4982211;28;20382;-70
2022/04/30 01:09:56;;;;;;;10.00;6.32;;;;;;;13.70;49.49;94232.19;4982345;28;20042;-71
2022/04/30 01:12:23;;;;;;;12.00;6.90;;;;;;;13.56;49.73;94226.25;4986612;28;20072;-70
2022/04/30 01:14:51;;;;;;;11.50;7.43;;;;;;;13.58;49.65;94235.53;4972891;28;20513;-71
2022/04/30 01:17:17;;;;;;;11.80;7.45;;;;;;;13.52;49.63;94222.66;4980536;28;20600;-70
2022/04/30 01:19:47;;;;;;;10.88;7.28;;;;;;;13.59;49.74;94228.31;4970069;28;20177;-70
2022/04/30 01:22:20;;;;;;;12.43;8.63;;;;;;;13.58;49.32;94232.84;4975475;28;20076;-70
2022/04/30 01:24:46;;;;;;;10.95;6.30;;;;;;;13.48;49.58;94217.19;4979422;28;20069;-69
2022/04/30 01:27:13;;;;;;;11.73;6.63;;;;;;;13.35;49.37;94210.13;4976034;28;20085;-69
2022/04/30 01:29:39;;;;;;;11.57;6.95;;;;;;;13.41;49.42;94214.22;4977628;28;20475;-69
2022/04/30 01:37:36;;;;;;;10.63;6.25;;;;;;;13.38;49.54;94230.09;4967243;28;20406;-69
2022/04/30 01:40:12;;;;;;;11.80;6.72;;;;;;;13.28;49.57;94233.91;4970652;28;20034;-69
2022/04/30 01:42:41;;;;;;;10.38;6.22;;;;;;;13.17;49.76;94233.47;4978634;28;20046;-69
2022/04/30 01:45:08;;;;;;;10.95;6.80;;;;;;;13.15;49.68;94224.22;4975540;28;20046;-70
2022/04/30 01:47:36;;;;;;;11.48;6.57;;;;;;;13.04;50.17;94217.63;4990250;28;20030;-70
2022/04/30 01:50:03;;;;;;;12.85;6.82;;;;;;;13.00;50.26;94219.38;4999502;28;20080;-70
2022/04/30 01:52:30;;;;;;;11.38;6.63;;;;;;;13.04;50.25;94228.31;4993432;28;20034;-70
2022/04/30 01:54:56;;;;;;;13.45;6.53;;;;;;;12.94;50.42;94223.31;4992208;28;20044;-70
2022/04/30 01:57:26;;;;;;;11.13;6.93;;;;;;;12.94;50.13;94229.44;4987814;28;20037;-70
2022/04/30 01:59:57;;;;;;;9.95;6.57;;;;;;;12.95;50.18;94222.22;4989733;28;20042;-70
2022/04/30 02:02:24;;;;;;;10.23;5.85;;;;;;;12.91;50.41;94223.97;4988356;28;20080;-70
2022/04/30 02:04:52;;;;;;;12.73;6.55;;;;;;;12.86;50.39;94212.31;4990167;28;22948;-71
2022/04/30 02:07:19;;;;;;;9.15;6.18;;;;;;;12.89;50.49;94222.38;4992320;28;20042;-70
2022/04/30 02:09:45;;;;;;;10.52;6.93;;;;;;;12.73;50.41;94221.31;4980012;28;20045;-71
2022/04/30 02:12:11;;;;;;;9.77;6.05;;;;;;;12.70;50.62;94218.50;4973815;28;20507;-70
2022/04/30 02:14:40;;;;;;;9.38;6.55;;;;;;;12.70;50.74;94218.50;4977749;28;20022;-70
2022/04/30 02:17:06;;;;;;;10.18;6.88;;;;;;;12.75;50.40;94227.13;4971514;28;20060;-70
2022/04/30 02:20:18;;;;;;;10.70;6.18;;;;;;;12.65;50.71;94219.44;4989796;28;20096;-70
2022/04/30 02:22:21;;;;;;;10.18;6.75;;;;;;;12.69;50.79;94224.91;4988439;28;20413;-70
2022/04/30 02:24:47;;;;;;;8.95;6.03;;;;;;;12.53;50.94;94211.25;4992497;28;20068;-69
2022/04/30 02:27:14;;;;;;;10.45;6.57;;;;;;;12.67;50.64;94219.88;4989430;28;20050;-70
2022/04/30 02:29:39;;;;;;;10.60;6.10;;;;;;;12.48;50.80;94184.72;4994846;28;20026;-70
2022/04/30 02:32:05;;;;;;;11.38;7.05;;;;;;;12.63;50.89;94213.63;4996065;28;20486;-69
2022/04/30 02:34:31;;;;;;;11.98;7.03;;;;;;;12.40;50.87;94177.53;4986288;28;21053;-70
2022/04/30 02:36:56;;;;;;;13.63;8.05;;;;;;;12.48;50.97;94192.72;4994347;28;20128;-71
2022/04/30 02:39:22;;;;;;;14.27;7.20;;;;;;;12.57;51.01;94214.84;4982663;28;20033;-69
2022/04/30 02:41:48;;;;;;;12.85;6.97;;;;;;;12.56;51.08;94221.31;4993834;28;20049;-72
2022/04/30 02:44:13;;;;;;;11.13;6.97;;;;;;;12.51;50.75;94194.00;4992302;28;20185;-69
2022/04/30 02:46:39;;;;;;;10.85;7.25;;;;;;;12.68;50.76;94216.13;4987677;28;20033;-71
2022/04/30 02:49:04;;;;;;;12.15;7.68;;;;;;;12.64;50.53;94214.41;4998553;28;20065;-69
2022/04/30 02:51:30;;;;;;;10.45;6.78;;;;;;;12.58;50.91;94213.78;4986817;28;20410;-71
2022/04/30 02:53:55;;;;;;;12.93;7.63;;;;;;;12.53;50.99;94211.25;4996718;28;20630;-70
2022/04/30 02:56:21;;;;;;;10.60;7.10;;;;;;;12.47;51.16;94213.28;4995795;28;20026;-71
2022/04/30 03:01:31;;;;;;;10.57;7.13;;;;;;;12.27;51.28;94194.47;4993300;28;20065;-71
2022/04/30 03:03:57;;;;;;;14.07;8.07;;;;;;;12.35;51.30;94213.13;4989490;28;20044;-71
2022/04/30 03:06:22;;;;;;;13.65;7.68;;;;;;;12.33;51.48;94209.19;4993925;28;20042;-71
2022/04/30 03:08:48;;;;;;;11.10;6.78;;;;;;;12.28;51.67;94206.69;4985581;28;20049;-71
2022/04/30 03:11:13;;;;;;;13.85;7.95;;;;;;;12.22;51.57;94197.31;4992286;28;20030;-71
2022/04/30 03:13:39;;;;;;;11.68;6.88;;;;;;;12.25;51.63;94202.00;4992769;28;20038;-70
2022/04/30 03:21:42;;;;;;;11.85;7.38;;;;;;;12.22;51.19;94207.97;4992244;28;20080;-70
2022/04/30 03:24:18;;;;;;;11.23;7.35;;;;;;;12.17;51.66;94202.78;4987508;28;20038;-71
2022/04/30 03:26:49;;;;;;;11.60;7.07;;;;;;;12.18;51.72;94204.34;4993542;28;20565;-69
2022/04/30 03:29:15;;;;;;;11.25;6.80;;;;;;;12.19;51.64;94212.03;4989635;28;20624;-71
2022/04/30 03:31:41;;;;;;;12.30;7.00;;;;;;;12.04;51.26;94189.28;4990837;28;20109;-71
2022/04/30 03:34:12;;;;;;;10.45;7.50;;;;;;;12.14;51.62;94214.84;4986636;28;20046;-71
2022/04/30 03:36:38;;;;;;;10.25;6.57;;;;;;;11.96;51.43;94195.41;4993269;28;20036;-71
2022/04/30 03:39:04;;;;;;;11.35;7.45;;;;;;;12.02;51.66;94220.81;4988110;28;20555;-71
2022/04/30 03:41:30;;;;;;;12.75;7.78;;;;;;;12.04;51.63;94215.94;4990568;28;20028;-71
2022/04/30 03:43:55;;;;;;;13.85;7.47;;;;;;;11.86;51.91;94200.22;4991908;28;20096;-71
2022/04/30 03:46:21;;;;;;;16.45;8.82;;;;;;;11.89;52.17;94224.38;4987416;28;20036;-71
2022/04/30 03:48:51;;;;;;;14.90;7.10;;;;;;;11.81;52.00;94209.16;4993258;28;20042;-69
2022/04/30 03:51:17;;;;;;;10.68;6.63;;;;;;;11.82;52.24;94208.06;4984492;28;20037;-71
2022/04/30 03:53:43;;;;;;;14.32;7.88;;;;;;;11.97;51.89;94230.84;4996919;28;20061;-70
2022/04/30 03:56:09;;;;;;;14.38;7.53;;;;;;;11.98;51.70;94232.38;4984500;28;20478;-70
2022/04/30 03:58:35;;;;;;;11.00;7.07;;;;;;;11.56;52.13;94169.91;4994125;28;20033;-71
2022/04/30 04:01:00;;;;;;;11.80;7.35;;;;;;;11.91;52.23;94227.53;4987332;28;20049;-71
2022/04/30 04:03:26;;;;;;;12.85;7.10;;;;;;;11.90;52.71;94228.63;4992933;28;20049;-71
2022/04/30 04:05:52;;;;;;;14.95;8.35;;;;;;;11.91;52.83;94238.19;4989457;28;20585;-72
2022/04/30 04:08:17;;;;;;;13.98;7.10;;;;;;;11.75;52.82;94204.28;4989319;28;20485;-71
2022/04/30 04:10:43;;;;;;;13.32;7.63;;;;;;;11.99;52.58;94231.28;4994224;28;20034;-70
2022/04/30 04:18:37;;;;;;;12.15;7.10;;;;;;;11.96;52.62;94203.38;4991562;28;20270;-71
2022/04/30 04:21:03;;;;;;;11.73;7.07;;;;;;;12.12;52.93;94227.72;4991017;28;20038;-70
2022/04/30 04:23:28;;;;;;;10.80;6.10;;;;;;;12.14;53.18;94222.06;4990916;28;20472;-70
2022/04/30 04:26:00;;;;;;;10.43;7.18;;;;;;;12.17;53.04;94221.44;4993613;28;20422;-71
2022/04/30 04:28:27;;;;;;;11.48;7.72;;;;;;;12.08;53.42;94204.66;4985746;28;20038;-71
2022/04/30 04:30:52;;;;;;;11.15;7.47;;;;;;;12.36;53.56;94240.59;4989420;28;20038;-72
2022/04/30 04:33:18;;;;;;;12.63;7.07;;;;;;;12.44;53.65;94231.81;4992685;28;20034;-71
2022/04/30 04:35:43;;;;;;;13.70;8.38;;;;;;;12.61;53.10;94241.72;4992898;28;20117;-70
2022/04/30 04:38:08;;;;;;;13.73;7.88;;;;;;;12.62;52.38;94222.72;4990856;28;20024;-71
2022/04/30 04:40:35;;;;;;;12.98;7.65;;;;;;;12.51;52.27;94194.00;4971569;28;20042;-71
2022/04/30 04:43:00;;;;;;;12.10;8.55;;;;;;;12.73;52.11;94228.53;4971497;28;20038;-70
2022/04/30 04:45:27;;;;;;;11.45;7.60;;;;;;;12.68;51.76;94213.47;4971353;28;20467;-70
2022/04/30 04:47:53;;;;;;;12.95;8.32;;;;;;;12.87;51.63;94235.25;4969683;28;20038;-70
2022/04/30 04:50:18;;;;;;;12.88;7.13;;;;;;;12.84;51.67;94230.56;4972009;28;20490;-70
2022/04/30 04:52:44;;;;;;;11.90;7.18;;;;;;;12.87;51.67;94239.81;4988736;28;20187;-71
2022/04/30 04:55:10;;;;;;;11.23;7.47;;;;;;;12.91;51.39;94242.66;4990144;28;20084;-71
2022/04/30 04:57:36;;;;;;;11.88;7.68;;;;;;;12.78;51.70;94221.13;4990040;28;20034;-71
2022/04/30 05:00:03;;;;;;;16.48;9.00;;;;;;;12.86;51.64;94227.56;4992923;28;20038;-71
2022/04/30 05:02:31;;;;;;;14.38;8.23;;;;;;;13.00;51.79;94240.75;4986673;28;20022;-71
2022/04/30 05:04:57;;;;;;;13.85;8.35;;;;;;;12.99;51.76;94252.50;4993116;28;20018;-71
2022/04/30 05:07:22;;;;;;;13.70;7.72;;;;;;;12.93;51.92;94259.13;4997319;28;20045;-72
2022/04/30 05:09:48;;;;;;;15.50;8.18;;;;;;;13.06;51.73;94231.44;4989310;28;20068;-71
2022/04/30 05:12:13;;;;;;;13.07;9.07;;;;;;;13.23;51.08;94252.78;5011093;28;20140;-71
2022/04/30 05:14:39;;;;;;;15.85;9.43;;;;;;;13.27;51.38;94248.34;4992068;28;20025;-71
2022/04/30 05:17:07;;;;;;;10.65;7.32;;;;;;;13.20;51.44;94258.75;4999844;28;20033;-70
2022/04/30 05:19:33;;;;;;;12.27;7.45;;;;;;;13.17;51.12;94240.69;4994642;28;20335;-71
2022/04/30 05:21:58;;;;;;;14.90;8.10;;;;;;;13.28;51.43;94255.28;4993249;28;20042;-70
2022/04/30 05:24:24;;;;;;;12.00;7.95;;;;;;;13.13;50.99;94242.44;4988279;28;20038;-71
2022/04/30 05:26:49;;;;;;;12.07;7.72;;;;;;;13.30;51.00;94253.06;4992673;28;20038;-71
2022/04/30 05:29:15;;;;;;;10.23;6.65;;;;;;;13.32;51.08;94250.84;4994604;28;20453;-69
2022/04/30 05:31:41;;;;;;;13.80;8.80;;;;;;;13.37;51.03;94257.91;4993384;28;20493;-71
2022/04/30 05:34:06;;;;;;;12.40;7.88;;;;;;;13.55;50.42;94254.84;4989341;28;20041;-71
2022/04/30 05:36:31;;;;;;;15.50;8.63;;;;;;;13.53;50.71;94261.63;4990721;28;20037;-72
2022/04/30 05:38:57;;;;;;;19.40;8.90;;;;;;;13.25;50.77;94256.69;4993128;28;20038;-71
2022/04/30 05:41:22;;;;;;;13.45;8.23;;;;;;;13.44;50.56;94261.69;4993803;28;20537;-70
2022/04/30 05:43:48;;;;;;;18.08;9.10;;;;;;;12.97;50.11;94195.97;4970847;28;20042;-70
2022/04/30 05:46:13;;;;;;;15.75;8.70;;;;;;;13.44;50.06;94275.03;4965476;28;20711;-70
2022/04/30 05:48:39;;;;;;;14.35;9.10;;;;;;;13.21;50.20;94250.41;4965825;28;20117;-71
2022/04/30 05:51:05;;;;;;;15.52;9.13;;;;;;;13.23;50.53;94242.09;4966209;28;20042;-70
2022/04/30 05:53:30;;;;;;;12.68;7.82;;;;;;;13.36;51.04;94262.47;4963714;28;20058;-71
2022/04/30 05:55:56;;;;;;;15.98;8.88;;;;;;;12.32;53.30;94269.75;4970559;28;20128;-70
2022/04/30 05:58:21;;;;;;;13.65;8.52;;;;;;;12.16;53.90;94275.88;4970008;28;20848;-70
2022/04/30 06:00:47;;;;;;;17.90;9.30;;;;;;;12.37;53.39;94253.59;4978918;28;20077;-71
2022/04/30 06:03:12;;;;;;;15.15;9.18;;;;;;;12.74;53.15;94273.59;4975396;28;20168;-71
2022/04/30 06:05:38;;;;;;;15.25;9.20;;;;;;;13.13;53.04;94269.13;4969951;28;20438;-70
2022/04/30 06:08:06;;;;;;;16.70;10.60;;;;;;;12.96;52.62;94264.59;4971637;28;20377;-71
2022/04/30 06:10:32;;;;;;;17.85;10.45;;;;;;;12.75;52.63;94280.50;4985328;28;20453;-70
2022/04/30 06:12:57;;;;;;;14.10;8.23;;;;;;;12.86;52.68;94281.72;4991135;28;20243;-70
2022/04/30 06:15:24;;;;;;;15.48;8.63;;;;;;;13.05;52.50;94276.06;4981198;28;20073;-68
2022/04/30 06:17:49;;;;;;;14.80;8.68;;;;;;;13.47;51.77;94271.72;4973163;28;20031;-70
2022/04/30 06:20:15;;;;;;;15.18;8.75;;;;;;;13.66;52.02;94264.13;4966944;28;20022;-70
2022/04/30 06:22:40;;;;;;;13.82;8.10;;;;;;;14.01;50.67;94262.06;4966898;28;20038;-69
2022/04/30 06:25:06;;;;;;;16.50;8.73;;;;;;;13.51;51.36;94261.94;4969488;28;20038;-69
2022/04/30 06:27:32;;;;;;;16.25;9.95;;;;;;;13.58;51.13;94254.22;4965441;28;20042;-71
2022/04/30 06:29:59;;;;;;;17.05;9.27;;;;;;;12.96;52.81;94277.19;4963642;28;20042;-70
2022/04/30 06:32:25;;;;;;;16.73;9.80;;;;;;;13.11;52.11;94255.31;4966472;28;20034;-69
2022/04/30 06:34:50;;;;;;;15.45;9.18;;;;;;;13.40;52.19;94271.41;4969976;28;20029;-70
2022/04/30 06:37:17;;;;;;;15.98;9.82;;;;;;;13.05;52.92;94269.94;4964600;28;20030;-70
2022/04/30 06:39:42;;;;;;;14.45;8.25;;;;;;;12.68;52.89;94274.03;4966941;28;20098;-70
2022/04/30 06:42:08;;;;;;;17.25;9.05;;;;;;;12.85;53.75;94253.47;4966252;28;20236;-68
2022/04/30 06:44:34;;;;;;;13.60;9.10;;;;;;;12.67;54.24;94267.91;4968029;28;20050;-68
2022/04/30 06:46:59;;;;;;;15.52;8.27;;;;;;;12.70;54.77;94261.97;4963217;28;20115;-70
2022/04/30 06:49:24;;;;;;;18.25;8.77;;;;;;;12.71;54.02;94260.09;4970442;28;20039;-69
2022/04/30 06:51:50;;;;;;;13.07;8.48;;;;;;;12.98;52.37;94266.97;4966611;28;22355;-69
2022/04/30 06:57:10;;;;;;;12.70;7.53;;;;;;;12.68;52.75;94258.81;4966510;28;20603;-69
2022/04/30 06:59:41;;;;;;;10.43;7.00;;;;;;;12.70;51.35;94261.19;4965529;28;20036;-70
2022/04/30 07:02:12;;;;;;;12.43;7.63;;;;;;;12.32;52.03;94253.00;4989881;28;20564;-69
2022/04/30 07:04:42;;;;;;;10.65;6.70;;;;;;;12.58;51.01;94251.13;4982502;28;20125;-70
2022/04/30 07:07:08;;;;;;;13.93;6.57;;;;;;;13.01;50.49;94260.97;4991949;28;20445;-69
2022/04/30 07:09:34;;;;;;;18.30;7.70;;;;;;;12.82;50.72;94255.97;4986929;28;20034;-70
2022/04/30 07:12:06;;;;;;;12.38;6.65;;;;;;;12.36;51.04;94220.06;4988746;28;20708;-68
2022/04/30 07:14:36;;;;;;;11.25;6.90;;;;;;;12.55;50.20;94259.75;4990749;28;20121;-70
2022/04/30 07:17:06;;;;;;;11.60;6.68;;;;;;;12.49;50.50;94236.97;4990319;28;20061;-68
2022/04/30 07:19:32;;;;;;;9.73;6.53;;;;;;;13.01;50.51;94252.97;4984610;28;20671;-71
2022/04/30 07:21:57;;;;;;;12.23;6.93;;;;;;;13.00;49.73;94254.09;4986929;28;20041;-70
2022/04/30 07:24:23;;;;;;;11.73;6.43;;;;;;;13.08;49.53;94251.41;4989839;28;20623;-70
2022/04/30 07:26:48;;;;;;;10.75;6.50;;;;;;;12.99;51.10;94260.53;4991923;28;20030;-69
2022/04/30 07:29:13;;;;;;;8.15;5.88;;;;;;;13.24;50.05;94246.34;4983595;28;20026;-69
2022/04/30 07:31:39;;;;;;;11.43;7.10;;;;;;;13.16;49.98;94252.47;4988613;28;20553;-69
2022/04/30 07:34:05;;;;;;;11.05;7.78;;;;;;;12.95;49.53;94241.69;4982824;28;20116;-68
2022/04/30 07:36:31;;;;;;;9.48;6.80;;;;;;;12.94;50.33;94224.09;4984714;28;22476;-70
2022/04/30 07:38:57;;;;;;;13.27;7.15;;;;;;;13.14;50.51;94249.34;4984092;28;20057;-70
2022/04/30 07:41:23;;;;;;;14.50;7.85;;;;;;;13.18;49.79;94242.25;4989609;28;20576;-69
2022/04/30 07:43:49;;;;;;;9.52;6.07;;;;;;;13.51;49.04;94240.56;4986314;28;20045;-70
2022/04/30 07:46:14;;;;;;;10.40;6.20;;;;;;;13.48;48.56;94227.88;4989548;28;20069;-69
2022/04/30 07:48:39;;;;;;;12.32;7.35;;;;;;;13.28;49.52;94241.91;4984501;28;20058;-70
2022/04/30 07:51:13;;;;;;;10.57;6.63;;;;;;;13.42;48.73;94239.03;4988187;28;20611;-70
2022/04/30 07:53:39;;;;;;;10.77;7.20;;;;;;;13.92;48.97;94244.50;4987146;28;20136;-70
2022/04/30 07:56:05;;;;;;;12.05;6.80;;;;;;;13.48;48.31;94249.25;4977245;28;20056;-69
2022/04/30 07:58:30;;;;;;;12.85;7.72;;;;;;;13.57;48.41;94235.84;4988675;28;20530;-69
2022/04/30 08:00:56;;;;;;;10.60;6.45;;;;;;;13.23;49.15;94221.50;4981468;28;20042;-71
2022/04/30 08:03:21;;;;;;;10.07;6.32;;;;;;;13.14;48.87;94236.00;4989440;28;20038;-69
2022/04/30 08:05:47;;;;;;;11.15;7.32;;;;;;;13.21;49.01;94233.59;4978751;28;20045;-69
2022/04/30 08:08:12;;;;;;;13.98;7.65;;;;;;;13.04;49.77;94234.44;4983594;28;20037;-69
2022/04/30 08:10:38;;;;;;;9.70;6.05;;;;;;;13.27;48.92;94226.97;4987266;28;20038;-70
2022/04/30 08:13:03;;;;;;;9.65;5.53;;;;;;;12.11;46.49;93974.75;4986420;28;20042;-69
2022/04/30 08:15:28;;;;;;;10.93;6.30;;;;;;;13.80;46.78;94231.03;4988666;28;20120;-69
2022/04/30 08:17:54;;;;;;;11.10;6.97;;;;;;;13.64;47.05;94223.56;4987508;28;20073;-69
2022/04/30 08:20:20;;;;;;;9.15;5.43;;;;;;;13.85;46.86;94230.84;4985964;28;20425;-69
2022/04/30 08:22:46;;;;;;;9.10;6.20;;;;;;;13.82;47.02;94218.13;4987677;28;20038;-70
2022/04/30 08:25:11;;;;;;;9.82;6.07;;;;;;;13.56;45.46;94224.34;4975644;28;20038;-70
2022/04/30 08:27:37;;;;;;;10.55;5.68;;;;;;;13.59;46.84;94237.09;4966309;28;20039;-69
2022/04/30 08:30:03;;;;;;;7.72;5.53;;;;;;;13.83;45.48;94227.72;4971499;28;20030;-69
2022/04/30 08:32:28;;;;;;;13.95;6.18;;;;;;;14.19;47.08;94234.09;4986846;28;20054;-70
2022/04/30 08:34:54;;;;;;;10.02;5.80;;;;;;;13.68;45.05;94221.84;4986677;28;20707;-71
2022/04/30 08:37:19;;;;;;;8.05;5.53;;;;;;;13.70;45.79;94208.91;4986521;28;20029;-70
2022/04/30 08:39:45;;;;;;;9.15;5.72;;;;;;;13.64;45.52;94218.22;4990814;28;20570;-70
2022/04/30 08:42:13;;;;;;;8.85;6.13;;;;;;;13.79;45.15;94221.47;4992916;28;20113;-69
2022/04/30 08:44:39;;;;;;;8.07;5.32;;;;;;;13.68;44.62;94197.78;4986300;28;20781;-69
2022/04/30 08:47:05;;;;;;;7.85;4.68;;;;;;;14.06;43.55;94220.97;4993825;28;20042;-70
2022/04/30 08:49:31;;;;;;;8.30;5.60;;;;;;;13.98;44.12;94205.78;4989884;28;20049;-71
2022/04/30 08:51:57;;;;;;;8.60;5.68;;;;;;;14.12;42.74;94211.66;4994606;28;20950;-71
2022/04/30 08:54:22;;;;;;;8.60;5.90;;;;;;;14.06;45.96;94203.03;4991415;28;20517;-70
2022/04/30 08:56:53;;;;;;;12.18;7.53;;;;;;;13.89;46.79;94205.03;4987842;28;20069;-71
2022/04/30 08:59:18;;;;;;;9.80;6.85;;;;;;;13.86;47.36;94206.47;4971661;28;20026;-70
2022/04/30 09:01:48;;;;;;;7.60;5.68;;;;;;;13.87;47.75;94207.25;4962192;28;20552;-71
2022/04/30 09:04:15;;;;;;;8.25;5.65;;;;;;;13.90;47.02;94211.94;4967401;28;20042;-71
2022/04/30 09:06:45;;;;;;;7.93;5.47;;;;;;;13.83;46.88;94201.00;4968581;28;20142;-70
2022/04/30 09:09:10;;;;;;;9.77;6.38;;;;;;;14.13;47.72;94200.63;4959626;28;20045;-70
2022/04/30 09:11:39;;;;;;;9.60;6.40;;;;;;;14.02;46.72;94185.31;4966488;28;20472;-71
2022/04/30 09:14:05;;;;;;;10.13;6.57;;;;;;;13.86;46.70;94195.00;4970929;28;20048;-70
2022/04/30 09:16:30;;;;;;;7.25;4.88;;;;;;;13.96;48.48;94178.56;4957990;28;20518;-71
2022/04/30 09:19:02;;;;;;;7.22;4.03;;;;;;;14.12;48.30;94177.69;4967577;28;20034;-71
2022/04/30 09:21:27;;;;;;;11.65;5.78;;;;;;;14.11;47.54;94197.50;4968241;28;20038;-70
2022/04/30 09:24:03;;;;;;;7.72;4.53;;;;;;;13.29;49.20;94193.53;4975088;28;20040;-70
2022/04/30 09:26:39;;;;;;;5.43;3.83;;;;;;;13.42;50.08;94191.72;4991793;28;20113;-71
2022/04/30 09:29:22;;;;;;;5.95;4.22;;;;;;;13.62;50.23;94199.06;4989598;28;20565;-70
2022/04/30 09:31:51;;;;;;;5.82;4.10;;;;;;;13.37;50.20;94183.91;4991047;28;20038;-71
2022/04/30 09:39:47;;;;;;;7.13;3.83;;;;;;;14.04;48.29;94172.38;4968090;28;20519;-71
2022/04/30 09:42:12;;;;;;;6.60;3.50;;;;;;;14.10;47.85;94168.41;4970266;28;20043;-71
2022/04/30 09:44:38;;;;;;;5.05;3.53;;;;;;;14.23;46.73;94175.38;4965064;28;20665;-71
2022/04/30 09:47:07;;;;;;;6.70;3.88;;;;;;;13.74;47.38;94185.78;4966292;28;20049;-71
2022/04/30 09:55:06;;;;;;;5.07;3.70;;;;;;;13.43;47.05;94187.97;4968426;28;20073;-72
2022/04/30 09:57:35;;;;;;;4.65;3.15;;;;;;;13.50;47.85;94182.88;4965710;28;20530;-71
2022/04/30 10:00:01;;;;;;;5.05;3.13;;;;;;;13.12;47.28;94187.44;4967413;28;20046;-70
2022/04/30 10:02:29;;;;;;;5.40;3.13;;;;;;;12.74;48.01;94168.72;4968223;28;20033;-71
2022/04/30 10:04:56;;;;;;;5.20;3.00;;;;;;;12.84;47.72;94177.16;4968873;28;20508;-71
2022/04/30 10:07:24;;;;;;;4.93;3.90;;;;;;;13.00;48.69;94190.00;4972490;28;20045;-68
2022/04/30 10:09:56;;;;;;;3.88;2.92;;;;;;;13.13;48.03;94173.78;4984936;28;20041;-69
2022/04/30 10:12:31;;;;;;;5.93;3.28;;;;;;;13.30;47.40;94167.56;4992545;28;20030;-70
2022/04/30 10:15:16;;;;;;;3.90;3.03;;;;;;;13.43;48.07;94171.94;4985118;28;20046;-70
2022/04/30 10:17:45;;;;;;;4.15;2.60;;;;;;;13.65;46.57;94158.31;4989239;28;20029;-70
2022/04/30 10:20:18;;;;;;;4.47;2.80;;;;;;;13.75;46.41;94152.59;4987174;28;20121;-71
2022/04/30 10:22:58;;;;;;;7.20;3.00;;;;;;;13.93;45.10;94149.81;5007088;28;20061;-70
2022/04/30 10:25:35;;;;;;;5.10;2.75;;;;;;;13.98;45.46;94157.66;4983462;28;20649;-69
2022/04/30 10:28:21;;;;;;;5.32;2.92;;;;;;;13.97;44.71;94154.19;4993073;28;20112;-70
2022/04/30 10:31:07;;;;;;;4.22;2.58;;;;;;;13.95;45.38;94147.59;4986565;28;20057;-69
2022/04/30 10:33:34;;;;;;;5.65;3.00;;;;;;;13.95;44.68;94152.94;4981738;28;20129;-70
2022/04/30 10:36:04;;;;;;;3.80;2.33;;;;;;;13.93;45.19;94147.16;4992035;28;20106;-70
2022/04/30 10:38:30;;;;;;;5.20;3.53;;;;;;;13.88;45.28;94128.63;4992607;28;20711;-70
2022/04/30 10:41:00;;;;;;;5.10;3.22;;;;;;;14.15;45.20;94142.25;4992530;28;20098;-69
2022/04/30 10:43:34;;;;;;;4.80;2.85;;;;;;;14.19;45.47;94134.34;4989086;28;20598;-70
2022/04/30 10:46:01;;;;;;;4.88;2.47;;;;;;;14.59;45.48;94135.44;4992885;28;20034;-69
2022/04/30 10:48:27;;;;;;;6.15;3.03;;;;;;;14.40;44.42;94112.91;4991544;28;20052;-69
2022/04/30 10:51:07;;;;;;;4.60;3.05;;;;;;;14.39;44.43;94125.50;4993089;28;20592;-69
2022/04/30 10:53:34;;;;;;;5.45;3.40;;;;;;;14.20;44.35;94146.59;4988537;28;20025;-69
2022/04/30 10:56:01;;;;;;;3.95;3.10;;;;;;;13.89;45.84;94135.50;4992620;28;20052;-69
2022/04/30 10:58:34;;;;;;;6.05;3.33;;;;;;;14.07;45.42;94139.66;4992250;28;20503;-69
2022/04/30 11:01:16;;;;;;;4.75;3.13;;;;;;;14.34;44.96;94141.78;4978161;28;20399;-70
2022/04/30 11:03:46;;;;;;;3.95;2.67;;;;;;;14.63;46.05;94142.78;4972340;28;20226;-68
2022/04/30 11:06:19;;;;;;;4.90;2.97;;;;;;;14.63;44.32;94126.72;4967822;28;20097;-70
2022/04/30 11:08:44;;;;;;;5.05;2.65;;;;;;;14.70;44.28;94126.97;4975739;28;20042;-69
2022/04/30 11:11:09;;;;;;;5.47;3.25;;;;;;;14.33;43.81;94140.19;4987540;28;20360;-70
2022/04/30 11:13:35;;;;;;;5.75;3.35;;;;;;;14.07;43.65;94111.00;4991415;28;20141;-69
2022/04/30 11:16:00;;;;;;;5.82;3.45;;;;;;;14.33;43.43;94129.50;4983784;28;20038;-68
2022/04/30 11:18:26;;;;;;;3.83;2.88;;;;;;;14.51;43.25;94119.44;4993085;28;20036;-70
2022/04/30 11:21:01;;;;;;;5.03;3.20;;;;;;;15.02;42.40;94118.09;4986335;28;20041;-70
2022/04/30 11:23:26;;;;;;;3.67;2.80;;;;;;;15.22;42.68;94122.59;4992138;28;20033;-69
2022/04/30 11:25:52;;;;;;;5.07;2.30;;;;;;;15.36;41.65;94074.81;4989459;28;20505;-69
2022/04/30 11:28:18;;;;;;;6.88;3.30;;;;;;;15.37;42.29;94123.81;4987405;28;20087;-69
2022/04/30 11:30:45;;;;;;;4.38;3.20;;;;;;;15.30;41.86;94124.38;4990952;28;20046;-70
2022/04/30 11:33:11;;;;;;;4.18;2.85;;;;;;;14.89;41.89;94103.16;4993309;28;20505;-70
2022/04/30 11:35:37;;;;;;;8.02;4.25;;;;;;;14.66;42.18;94121.50;4985220;28;20092;-69
2022/04/30 11:38:07;;;;;;;5.43;2.97;;;;;;;14.64;42.50;94130.97;4995118;28;20030;-69
2022/04/30 11:40:33;;;;;;;4.35;3.08;;;;;;;14.72;42.85;94138.91;4993645;28;20256;-70
2022/04/30 11:43:00;;;;;;;4.82;2.85;;;;;;;14.75;41.73;94119.53;4988581;28;20295;-70
2022/04/30 11:45:32;;;;;;;4.75;2.88;;;;;;;14.79;42.10;94114.28;4992985;28;20076;-69
2022/04/30 11:48:05;;;;;;;5.47;2.65;;;;;;;14.56;42.22;94117.38;4993107;28;20124;-70
2022/04/30 11:50:30;;;;;;;5.72;2.78;;;;;;;14.50;42.37;94102.59;4993278;28;20112;-70
2022/04/30 11:52:58;;;;;;;5.85;2.65;;;;;;;14.71;42.59;94107.91;4987971;28;20049;-71
2022/04/30 11:55:23;;;;;;;4.78;2.78;;;;;;;14.95;42.66;94102.59;4970710;28;20037;-71
2022/04/30 11:57:49;;;;;;;6.50;3.63;;;;;;;14.92;41.71;94118.53;4969401;28;20042;-69
2022/04/30 12:00:19;;;;;;;5.20;3.10;;;;;;;15.04;42.42;94110.53;4971335;28;20043;-69